Time;durP1;ratioP1;P1;durP2;ratioP2;P2;SDS_P1;SDS_P2;PMS_P1;PMS_P2;Temp;Humidity;BMP_temperature;BMP_pressure;BME280_temperature;BME280_humidity;BME280_pressure;Samples;Min_cycle;Max_cycle;Signal;HPM_P1;HPM_P2
2021/06/12 00:02:14;;;;;;;8.33;7.57;;;20.40;99.90;;;;;;5053392;28;20611;-62
2021/06/12 00:04:39;;;;;;;10.90;7.63;;;20.40;99.90;;;;;;5054185;28;20209;-63
2021/06/12 00:07:05;;;;;;;7.50;6.80;;;20.40;99.90;;;;;;5054651;28;20533;-62
2021/06/12 00:09:31;;;;;;;8.10;7.20;;;20.30;99.90;;;;;;5054813;28;20186;-62
2021/06/12 00:11:56;;;;;;;8.67;7.70;;;20.40;99.90;;;;;;5037427;28;20319;-62
2021/06/12 00:14:22;;;;;;;10.73;7.07;;;20.40;99.90;;;;;;5034502;28;20455;-61
2021/06/12 00:16:48;;;;;;;8.07;7.23;;;20.40;99.90;;;;;;5053011;28;20182;-61
2021/06/12 00:19:14;;;;;;;8.60;7.37;;;20.40;99.90;;;;;;5054541;28;20416;-62
2021/06/12 00:21:40;;;;;;;8.83;7.37;;;20.50;99.90;;;;;;5054510;28;20170;-61
2021/06/12 00:24:07;;;;;;;8.10;7.30;;;20.60;99.90;;;;;;5054422;28;20200;-62
2021/06/12 00:26:33;;;;;;;8.20;7.03;;;20.60;99.90;;;;;;5054218;28;20305;-61
2021/06/12 00:28:59;;;;;;;8.50;7.60;;;20.50;99.90;;;;;;5052911;28;20526;-62
2021/06/12 00:31:25;;;;;;;10.07;8.10;;;20.50;99.90;;;;;;5054476;28;20277;-62
2021/06/12 00:33:50;;;;;;;9.30;7.53;;;20.40;99.90;;;;;;5053973;28;20571;-62
2021/06/12 00:36:16;;;;;;;10.17;7.50;;;20.50;99.90;;;;;;5054022;28;20194;-61
2021/06/12 00:38:41;;;;;;;8.33;7.17;;;20.50;99.90;;;;;;5054230;28;20171;-62
2021/06/12 00:41:08;;;;;;;7.87;6.73;;;20.50;99.90;;;;;;5054379;28;20532;-62
2021/06/12 00:43:34;;;;;;;10.53;7.70;;;20.40;99.90;;;;;;5053505;28;20651;-61
2021/06/12 00:46:01;;;;;;;8.47;7.60;;;20.40;99.90;;;;;;5054126;28;20472;-62
2021/06/12 00:48:27;;;;;;;10.03;8.70;;;20.40;99.90;;;;;;5053928;28;20755;-62
2021/06/12 00:50:54;;;;;;;12.37;8.53;;;20.50;99.90;;;;;;5053956;28;20492;-62
2021/06/12 00:53:36;;;;;;;9.20;8.10;;;20.50;99.90;;;;;;5053773;28;20401;-62
2021/06/12 00:56:03;;;;;;;9.90;7.90;;;20.50;99.90;;;;;;5053863;28;20474;-61
2021/06/12 00:58:30;;;;;;;14.83;8.13;;;20.60;99.90;;;;;;5053252;28;20945;-62
2021/06/12 01:00:55;;;;;;;9.47;8.10;;;20.60;99.90;;;;;;5052585;28;20411;-62
2021/06/12 01:03:21;;;;;;;10.60;8.23;;;20.70;99.90;;;;;;5052391;28;20416;-63
2021/06/12 01:05:47;;;;;;;8.30;7.37;;;20.70;99.90;;;;;;5051428;28;20205;-61
2021/06/12 01:08:12;;;;;;;10.73;9.30;;;20.60;99.90;;;;;;5053424;28;20512;-62
2021/06/12 01:10:38;;;;;;;12.40;8.40;;;20.60;99.90;;;;;;5053798;28;20511;-62
2021/06/12 01:13:28;;;;;;;10.90;8.33;;;20.60;99.90;;;;;;5053674;28;20166;-62
2021/06/12 01:16:00;;;;;;;10.00;8.23;;;20.60;99.90;;;;;;5053321;28;20240;-62
2021/06/12 01:18:34;;;;;;;11.57;7.37;;;20.50;99.90;;;;;;5053109;28;20409;-63
2021/06/12 01:21:04;;;;;;;8.73;7.33;;;20.50;99.90;;;;;;5052956;28;20459;-61
2021/06/12 01:23:51;;;;;;;12.10;9.23;;;20.50;99.90;;;;;;5060487;28;20477;-62
2021/06/12 01:26:47;;;;;;;12.00;8.60;;;20.60;99.90;;;;;;5067649;28;20460;-62
2021/06/12 01:29:45;;;;;;;9.73;8.73;;;20.60;99.90;;;;;;5066916;28;20489;-62
2021/06/12 01:32:12;;;;;;;9.60;8.07;;;20.50;99.90;;;;;;5045895;28;20409;-62
2021/06/12 01:34:40;;;;;;;10.73;9.37;;;20.50;99.90;;;;;;5033233;28;20461;-62
2021/06/12 01:37:09;;;;;;;10.33;7.23;;;20.50;99.90;;;;;;5033189;28;20405;-62
2021/06/12 01:39:38;;;;;;;10.10;8.50;;;20.60;99.90;;;;;;5033163;28;20511;-62
2021/06/12 01:42:06;;;;;;;12.43;9.23;;;20.60;99.90;;;;;;5052177;28;20421;-62
2021/06/12 01:44:33;;;;;;;12.80;9.20;;;20.70;99.90;;;;;;5057415;28;20430;-62
2021/06/12 01:47:00;;;;;;;10.63;7.73;;;20.70;99.90;;;;;;5060102;28;20400;-62
2021/06/12 01:49:28;;;;;;;11.40;8.00;;;20.70;99.90;;;;;;5059654;28;20409;-61
2021/06/12 01:51:54;;;;;;;9.10;7.23;;;20.70;99.90;;;;;;5059465;28;20419;-62
2021/06/12 01:54:21;;;;;;;10.60;7.90;;;20.80;99.90;;;;;;5059754;28;20808;-62
2021/06/12 01:56:48;;;;;;;9.23;8.33;;;20.80;99.90;;;;;;5059322;28;20428;-62
2021/06/12 01:59:14;;;;;;;9.20;7.67;;;20.80;99.90;;;;;;5059562;28;20519;-62
2021/06/12 02:01:48;;;;;;;7.93;6.27;;;20.80;99.90;;;;;;5058641;28;20506;-62
2021/06/12 02:04:16;;;;;;;9.93;7.47;;;20.80;99.90;;;;;;5054245;28;20147;-61
2021/06/12 02:06:44;;;;;;;8.10;6.50;;;20.90;99.90;;;;;;5052608;28;20952;-62
2021/06/12 02:09:10;;;;;;;9.03;7.67;;;20.90;99.90;;;;;;5052593;28;20530;-62
2021/06/12 02:11:37;;;;;;;10.30;7.33;;;20.80;99.90;;;;;;5052952;28;20901;-62
2021/06/12 02:14:03;;;;;;;7.63;6.83;;;20.90;99.90;;;;;;5051290;28;20523;-62
2021/06/12 02:16:29;;;;;;;8.30;6.80;;;20.90;99.90;;;;;;5052475;28;20507;-62
2021/06/12 02:18:56;;;;;;;8.33;7.07;;;20.90;99.90;;;;;;5059924;28;20435;-62
2021/06/12 02:21:22;;;;;;;5.87;5.07;;;20.90;99.90;;;;;;5061147;28;20457;-62
2021/06/12 02:23:52;;;;;;;5.93;5.30;;;20.90;99.90;;;;;;5059750;28;20456;-62
2021/06/12 02:26:21;;;;;;;6.95;6.15;;;21.00;99.90;;;;;;5060037;28;20428;-61
2021/06/12 02:28:49;;;;;;;7.10;6.10;;;21.00;99.90;;;;;;5060074;28;20166;-62
2021/06/12 02:31:27;;;;;;;7.00;5.60;;;21.00;99.90;;;;;;5053935;28;20409;-62
2021/06/12 02:33:52;;;;;;;8.20;6.00;;;20.90;99.90;;;;;;5053161;28;20444;-62
2021/06/12 02:36:19;;;;;;;6.33;5.50;;;21.00;99.90;;;;;;5053520;28;20205;-61
2021/06/12 02:38:45;;;;;;;9.50;5.70;;;21.00;99.90;;;;;;5053490;28;20174;-62
2021/06/12 02:41:11;;;;;;;6.10;5.50;;;21.10;99.90;;;;;;5053200;28;20419;-62
2021/06/12 02:43:36;;;;;;;7.43;6.60;;;21.00;99.90;;;;;;5049715;28;20425;-63
2021/06/12 02:46:04;;;;;;;7.27;5.97;;;21.00;99.90;;;;;;5037563;28;20219;-61
2021/06/12 02:48:32;;;;;;;7.73;6.30;;;20.80;99.90;;;;;;5032411;28;20213;-61
2021/06/12 02:50:59;;;;;;;8.20;6.03;;;20.60;99.90;;;;;;5033771;28;20872;-62
2021/06/12 02:53:28;;;;;;;6.73;4.87;;;20.60;99.90;;;;;;5035371;28;20491;-62
2021/06/12 02:55:58;;;;;;;8.83;6.50;;;20.70;99.90;;;;;;5052995;28;20435;-62
2021/06/12 02:58:26;;;;;;;9.57;6.50;;;20.80;99.90;;;;;;5052434;28;20561;-62
2021/06/12 03:00:52;;;;;;;8.37;6.20;;;20.80;99.90;;;;;;5052606;28;20417;-62
2021/06/12 03:03:18;;;;;;;11.13;6.80;;;20.90;99.90;;;;;;5052034;28;20424;-62
2021/06/12 03:05:48;;;;;;;7.80;7.00;;;20.90;99.90;;;;;;5051708;28;20477;-62
2021/06/12 03:08:16;;;;;;;7.80;6.40;;;20.90;99.90;;;;;;5052145;28;20401;-62
2021/06/12 03:10:42;;;;;;;9.13;6.30;;;20.80;99.90;;;;;;5052545;28;20488;-62
2021/06/12 03:13:13;;;;;;;8.10;6.47;;;20.80;99.90;;;;;;5052469;28;20401;-63
2021/06/12 03:15:41;;;;;;;8.40;7.50;;;20.70;99.90;;;;;;5051763;28;20446;-62
2021/06/12 03:18:06;;;;;;;8.73;7.15;;;20.80;99.90;;;;;;5049459;28;20749;-62
2021/06/12 03:20:33;;;;;;;8.70;7.60;;;20.70;99.90;;;;;;5051833;28;20260;-61
2021/06/12 03:23:02;;;;;;;8.43;7.50;;;20.70;99.90;;;;;;5051549;28;20190;-61
2021/06/12 03:25:29;;;;;;;8.10;6.67;;;20.70;99.90;;;;;;5051615;28;20665;-61
2021/06/12 03:27:55;;;;;;;11.27;7.57;;;20.70;99.90;;;;;;5051665;28;20432;-61
2021/06/12 03:30:22;;;;;;;7.80;6.17;;;20.70;99.90;;;;;;5055953;28;20416;-61
2021/06/12 03:32:48;;;;;;;8.07;6.30;;;20.70;99.90;;;;;;5055281;28;20408;-61
2021/06/12 03:35:14;;;;;;;8.30;6.80;;;20.70;99.90;;;;;;5035576;28;20927;-62
2021/06/12 03:37:41;;;;;;;9.33;6.40;;;20.70;99.90;;;;;;5051229;28;20177;-61
2021/06/12 03:40:08;;;;;;;6.50;5.80;;;20.80;99.90;;;;;;5055490;28;20640;-61
2021/06/12 03:42:35;;;;;;;10.53;7.53;;;20.80;99.90;;;;;;5055219;28;20424;-61
2021/06/12 03:45:04;;;;;;;7.20;6.40;;;20.70;99.90;;;;;;5059032;28;20456;-62
2021/06/12 03:47:31;;;;;;;8.47;7.57;;;20.80;99.90;;;;;;5076430;28;20420;-62
2021/06/12 03:49:57;;;;;;;8.77;7.50;;;20.70;99.90;;;;;;5069659;28;20467;-62
2021/06/12 03:52:26;;;;;;;8.27;6.10;;;20.50;99.90;;;;;;5043152;28;20445;-62
2021/06/12 03:54:52;;;;;;;7.40;6.40;;;20.40;99.90;;;;;;5034443;28;20274;-62
2021/06/12 03:57:19;;;;;;;7.93;6.23;;;20.50;99.90;;;;;;5037969;28;20425;-62
2021/06/12 03:59:45;;;;;;;8.63;6.53;;;20.60;99.90;;;;;;5055058;28;20461;-62
2021/06/12 04:02:13;;;;;;;7.53;6.17;;;20.70;99.90;;;;;;5054926;28;20514;-61
2021/06/12 04:04:39;;;;;;;7.63;6.83;;;20.70;99.90;;;;;;5054840;28;20175;-62
2021/06/12 04:07:05;;;;;;;6.93;5.23;;;20.70;99.90;;;;;;5054712;28;20412;-62
2021/06/12 04:09:30;;;;;;;6.57;5.90;;;20.70;99.90;;;;;;5054784;28;20519;-62
2021/06/12 04:11:56;;;;;;;7.47;5.50;;;20.70;99.90;;;;;;5055426;28;20624;-62
2021/06/12 04:14:22;;;;;;;6.97;6.13;;;20.60;99.90;;;;;;5056530;28;20208;-62
2021/06/12 04:16:47;;;;;;;7.03;5.63;;;20.60;99.90;;;;;;5056466;28;20280;-61
2021/06/12 04:19:13;;;;;;;6.90;5.43;;;20.70;99.90;;;;;;5054631;28;20182;-62
2021/06/12 04:21:38;;;;;;;5.47;4.93;;;20.60;99.90;;;;;;5055242;28;20214;-62
2021/06/12 04:24:04;;;;;;;11.23;7.07;;;20.70;99.90;;;;;;5054128;28;20182;-62
2021/06/12 04:26:29;;;;;;;10.07;7.00;;;20.70;99.90;;;;;;5054264;28;20220;-62
2021/06/12 04:28:55;;;;;;;7.30;5.50;;;20.60;99.90;;;;;;5054324;28;20217;-61
2021/06/12 04:31:20;;;;;;;8.47;6.47;;;20.60;99.90;;;;;;5053626;28;20285;-62
2021/06/12 04:33:46;;;;;;;8.77;6.50;;;20.60;99.90;;;;;;5054536;28;20174;-62
2021/06/12 04:36:12;;;;;;;10.10;6.40;;;20.60;99.90;;;;;;5053918;28;20202;-62
2021/06/12 04:38:37;;;;;;;10.63;7.40;;;20.70;99.90;;;;;;5053835;28;20224;-61
2021/06/12 04:41:03;;;;;;;10.07;6.40;;;20.70;99.90;;;;;;5053039;28;20178;-61
2021/06/12 04:43:28;;;;;;;9.50;7.67;;;20.70;99.90;;;;;;5054053;28;20186;-62
2021/06/12 04:45:54;;;;;;;8.57;6.90;;;20.70;99.90;;;;;;5053851;28;20226;-62
2021/06/12 04:48:20;;;;;;;8.00;6.73;;;20.80;99.90;;;;;;5054466;28;20261;-62
2021/06/12 04:50:45;;;;;;;8.00;7.20;;;20.90;99.90;;;;;;5053453;28;20413;-61
2021/06/12 04:53:12;;;;;;;7.43;6.67;;;20.90;99.90;;;;;;5053329;28;20178;-62
2021/06/12 04:55:38;;;;;;;8.27;7.47;;;20.90;99.90;;;;;;5054073;28;20212;-62
2021/06/12 04:58:04;;;;;;;9.10;6.90;;;21.00;99.90;;;;;;5053745;28;20417;-62
2021/06/12 05:00:30;;;;;;;6.83;5.70;;;21.00;99.90;;;;;;5053698;28;20405;-63
2021/06/12 05:02:55;;;;;;;7.40;6.70;;;21.00;99.90;;;;;;5055019;28;20805;-62
2021/06/12 05:05:21;;;;;;;9.33;7.70;;;21.00;99.90;;;;;;5061558;28;20511;-61
2021/06/12 05:07:46;;;;;;;8.73;6.70;;;21.10;99.90;;;;;;5056336;28;20257;-62
2021/06/12 05:10:12;;;;;;;11.60;7.60;;;21.00;99.90;;;;;;5048392;28;20217;-62
2021/06/12 05:12:38;;;;;;;7.70;6.83;;;21.00;99.90;;;;;;5045501;28;20302;-62
2021/06/12 05:15:07;;;;;;;9.88;8.48;;;20.90;99.90;;;;;;5043213;28;20496;-62
2021/06/12 05:17:33;;;;;;;9.77;7.20;;;20.80;99.90;;;;;;5044833;28;20182;-62
2021/06/12 05:19:59;;;;;;;9.37;7.70;;;20.80;99.90;;;;;;5042100;28;20515;-62
2021/06/12 05:22:27;;;;;;;9.97;7.67;;;20.90;99.90;;;;;;5037389;28;20617;-62
2021/06/12 05:24:56;;;;;;;11.23;8.90;;;21.00;99.90;;;;;;5045632;28;20527;-62
2021/06/12 05:27:23;;;;;;;8.90;8.00;;;20.90;99.90;;;;;;5040391;28;20185;-62
2021/06/12 05:29:48;;;;;;;8.50;6.97;;;20.80;99.90;;;;;;5046711;28;20417;-62
2021/06/12 05:32:15;;;;;;;11.33;9.10;;;21.00;99.90;;;;;;5046536;28;21015;-62
2021/06/12 05:34:42;;;;;;;12.07;10.00;;;21.10;99.90;;;;;;5036434;28;20174;-61
2021/06/12 05:37:08;;;;;;;10.57;8.40;;;21.00;99.90;;;;;;5038797;28;20422;-61
2021/06/12 05:39:33;;;;;;;10.63;8.77;;;21.10;99.90;;;;;;5043320;28;20412;-61
2021/06/12 05:42:00;;;;;;;12.70;8.17;;;21.10;99.90;;;;;;5044968;28;20508;-63
2021/06/12 05:44:25;;;;;;;13.03;9.67;;;21.10;99.90;;;;;;5042918;28;20175;-63
2021/06/12 05:46:51;;;;;;;11.67;10.37;;;21.20;99.90;;;;;;5041445;28;20859;-63
2021/06/12 05:49:17;;;;;;;9.80;8.43;;;21.30;99.90;;;;;;5032450;28;20178;-64
2021/06/12 05:51:43;;;;;;;13.17;10.30;;;21.40;99.90;;;;;;5047941;28;20235;-63
2021/06/12 05:54:08;;;;;;;12.83;10.40;;;21.50;99.90;;;;;;5053394;28;20537;-63
2021/06/12 05:56:34;;;;;;;10.70;8.73;;;21.40;99.90;;;;;;5047654;28;20636;-62
2021/06/12 05:59:00;;;;;;;12.37;11.20;;;21.40;99.90;;;;;;5050734;28;20724;-62
2021/06/12 06:01:25;;;;;;;12.93;11.63;;;21.50;99.90;;;;;;5062381;28;20244;-61
2021/06/12 06:03:51;;;;;;;17.40;12.47;;;21.50;99.90;;;;;;5054772;28;20189;-68
2021/06/12 06:06:16;;;;;;;14.20;12.80;;;21.50;99.90;;;;;;5067036;28;20962;-61
2021/06/12 06:08:42;;;;;;;14.77;13.07;;;21.50;99.90;;;;;;5068152;28;20189;-63
2021/06/12 06:11:07;;;;;;;19.30;12.77;;;21.40;99.90;;;;;;5051428;28;20217;-63
2021/06/12 06:13:38;;;;;;;11.37;10.23;;;21.20;99.90;;;;;;5050597;28;20182;-65
2021/06/12 06:16:04;;;;;;;13.80;11.90;;;21.20;99.90;;;;;;5051103;28;20736;-61
2021/06/12 06:18:29;;;;;;;14.63;13.20;;;21.20;99.90;;;;;;5051486;28;20910;-64
2021/06/12 06:20:55;;;;;;;12.60;10.77;;;21.10;99.90;;;;;;5051268;28;20416;-63
2021/06/12 06:23:20;;;;;;;12.40;11.17;;;21.00;99.90;;;;;;5051031;28;20170;-64
2021/06/12 06:25:46;;;;;;;12.60;11.40;;;21.00;99.90;;;;;;5051566;28;20224;-64
2021/06/12 06:28:11;;;;;;;12.73;11.43;;;21.10;99.90;;;;;;5053560;28;20688;-63
2021/06/12 06:30:37;;;;;;;11.97;10.50;;;21.30;99.90;;;;;;5063742;28;20260;-63
2021/06/12 06:33:03;;;;;;;10.87;9.80;;;21.40;99.90;;;;;;5066297;28;20653;-63
2021/06/12 06:35:28;;;;;;;11.27;10.03;;;21.60;99.90;;;;;;5049682;28;20941;-64
2021/06/12 06:37:54;;;;;;;11.70;10.60;;;21.70;99.90;;;;;;5050877;28;20507;-63
2021/06/12 06:40:19;;;;;;;12.33;10.40;;;21.70;99.90;;;;;;5050836;28;20217;-63
2021/06/12 06:42:45;;;;;;;10.10;9.10;;;21.60;99.90;;;;;;5050378;28;20248;-62
2021/06/12 06:45:11;;;;;;;9.50;8.27;;;21.50;99.90;;;;;;5050969;28;20202;-62
2021/06/12 06:47:37;;;;;;;9.10;8.20;;;21.50;99.90;;;;;;5052590;28;20216;-62
2021/06/12 06:50:04;;;;;;;9.70;8.80;;;21.60;99.90;;;;;;5055127;28;20754;-63
2021/06/12 06:52:30;;;;;;;12.20;8.13;;;21.80;99.90;;;;;;5053405;28;20171;-62
2021/06/12 06:54:56;;;;;;;9.87;8.40;;;21.80;99.90;;;;;;5056660;28;20464;-64
2021/06/12 06:57:21;;;;;;;9.63;8.73;;;21.90;99.90;;;;;;5058602;28;20336;-65
2021/06/12 06:59:47;;;;;;;8.90;8.10;;;21.90;99.90;;;;;;5058047;28;20193;-63
2021/06/12 07:02:12;;;;;;;8.17;7.47;;;22.00;99.90;;;;;;5058714;28;20178;-63
2021/06/12 07:04:38;;;;;;;11.13;7.80;;;21.90;99.90;;;;;;5054678;28;20237;-62
2021/06/12 07:07:05;;;;;;;8.77;7.87;;;21.70;99.90;;;;;;5045660;28;20221;-67
2021/06/12 07:09:31;;;;;;;8.37;7.43;;;21.70;99.90;;;;;;5037061;28;20201;-68
2021/06/12 07:11:59;;;;;;;9.37;8.57;;;21.90;99.90;;;;;;5036750;28;20441;-73
2021/06/12 07:14:36;;;;;;;8.33;7.53;;;22.00;99.90;;;;;;5046257;28;20248;-73
2021/06/12 07:17:02;;;;;;;8.50;7.80;;;21.90;99.90;;;;;;5056008;28;20509;-74
2021/06/12 07:19:27;;;;;;;8.27;7.43;;;22.00;99.90;;;;;;5051666;28;20432;-74
2021/06/12 07:21:53;;;;;;;8.77;7.90;;;21.90;99.90;;;;;;5038762;28;20225;-73
2021/06/12 07:24:19;;;;;;;8.10;7.30;;;21.70;99.90;;;;;;5036584;28;20167;-73
2021/06/12 07:26:44;;;;;;;8.50;7.70;;;21.80;99.90;;;;;;5053738;28;20221;-74
2021/06/12 07:29:11;;;;;;;9.00;7.90;;;22.00;99.90;;;;;;5054859;28;20427;-74
2021/06/12 07:31:38;;;;;;;7.73;6.90;;;22.20;99.90;;;;;;5050682;28;20437;-74
2021/06/12 07:34:05;;;;;;;8.63;7.73;;;22.40;99.90;;;;;;5054794;28;20493;-74
2021/06/12 07:36:31;;;;;;;8.50;7.80;;;22.50;99.90;;;;;;5055198;28;20432;-74
2021/06/12 07:38:57;;;;;;;8.30;7.40;;;22.60;99.90;;;;;;5056647;28;20440;-73
2021/06/12 07:41:22;;;;;;;8.63;7.83;;;22.70;99.90;;;;;;5056576;28;20411;-74
2021/06/12 07:43:48;;;;;;;10.40;8.97;;;22.80;99.90;;;;;;5055340;28;20178;-73
2021/06/12 07:46:14;;;;;;;8.80;8.00;;;22.70;99.90;;;;;;5056603;28;20456;-73
2021/06/12 07:48:39;;;;;;;10.03;9.13;;;22.60;99.90;;;;;;5049733;28;20664;-73
2021/06/12 07:51:06;;;;;;;9.87;8.80;;;22.50;99.90;;;;;;5048783;28;20250;-74
2021/06/12 07:53:32;;;;;;;12.60;11.60;;;22.00;99.90;;;;;;5047663;28;20607;-74
2021/06/12 07:55:58;;;;;;;13.33;12.00;;;21.60;99.90;;;;;;5052370;28;20486;-73
2021/06/12 07:58:24;;;;;;;14.20;12.90;;;21.50;99.90;;;;;;5046977;28;20970;-73
2021/06/12 08:00:49;;;;;;;14.10;12.80;;;21.40;99.90;;;;;;5049035;28;20415;-66
2021/06/12 08:03:15;;;;;;;14.43;11.60;;;21.40;99.90;;;;;;5052760;28;20201;-67
2021/06/12 08:05:40;;;;;;;13.00;11.77;;;21.40;99.90;;;;;;5046414;28;20212;-65
2021/06/12 08:08:06;;;;;;;12.03;10.93;;;21.50;99.90;;;;;;5047401;28;20615;-66
2021/06/12 08:10:32;;;;;;;15.80;14.30;;;21.60;99.90;;;;;;5060590;28;20959;-64
2021/06/12 08:12:57;;;;;;;17.03;15.53;;;21.90;99.90;;;;;;5038413;28;20175;-65
2021/06/12 08:15:23;;;;;;;16.47;14.97;;;21.80;99.90;;;;;;5055609;28;20339;-65
2021/06/12 08:17:50;;;;;;;17.50;15.70;;;21.70;99.90;;;;;;5050558;28;20167;-72
2021/06/12 08:20:15;;;;;;;17.67;16.17;;;21.50;99.90;;;;;;5050564;28;20774;-73
2021/06/12 08:22:44;;;;;;;19.43;16.70;;;21.50;99.90;;;;;;5070535;28;20427;-73
2021/06/12 08:25:10;;;;;;;18.50;16.90;;;21.40;99.90;;;;;;5072577;28;20193;-72
2021/06/12 08:27:37;;;;;;;19.40;17.50;;;21.30;99.90;;;;;;5072593;28;20761;-73
2021/06/12 08:30:04;;;;;;;19.50;17.70;;;21.20;99.90;;;;;;5071257;28;20910;-73
2021/06/12 08:32:30;;;;;;;21.07;18.67;;;20.90;99.90;;;;;;5055550;28;20389;-74
2021/06/12 08:34:56;;;;;;;19.63;17.73;;;20.90;99.90;;;;;;5055441;28;20439;-74
2021/06/12 08:37:21;;;;;;;19.97;18.27;;;20.90;99.90;;;;;;5055561;28;20252;-74
2021/06/12 08:39:47;;;;;;;22.30;20.20;;;20.90;99.90;;;;;;5057808;28;20166;-73
2021/06/12 08:42:13;;;;;;;21.23;19.33;;;21.00;99.90;;;;;;5056332;28;20173;-74
2021/06/12 08:44:40;;;;;;;21.20;18.97;;;20.90;99.90;;;;;;5057169;28;20162;-73
2021/06/12 08:47:06;;;;;;;23.00;21.00;;;20.90;99.90;;;;;;5057168;28;20158;-74
2021/06/12 08:49:31;;;;;;;23.00;20.87;;;20.70;99.90;;;;;;5058520;28;20429;-73
2021/06/12 08:51:57;;;;;;;24.53;22.27;;;20.40;99.90;;;;;;5060644;28;20162;-74
2021/06/12 08:54:26;;;;;;;24.20;21.60;;;20.50;99.90;;;;;;5062697;28;20261;-73
2021/06/12 08:56:53;;;;;;;25.83;23.33;;;20.50;99.90;;;;;;5062542;28;20170;-74
2021/06/12 08:59:19;;;;;;;24.43;22.00;;;20.50;99.90;;;;;;5061652;28;20519;-74
2021/06/12 09:01:45;;;;;;;23.90;21.70;;;20.40;99.90;;;;;;5062350;28;20439;-74
2021/06/12 09:04:11;;;;;;;25.17;22.53;;;20.50;99.90;;;;;;5057378;28;20445;-74
2021/06/12 09:06:37;;;;;;;27.33;24.70;;;20.50;99.90;;;;;;5062021;28;20452;-74
2021/06/12 09:09:04;;;;;;;27.53;24.80;;;20.10;99.90;;;;;;5062518;28;20458;-74
2021/06/12 09:11:34;;;;;;;26.77;24.17;;;20.00;99.90;;;;;;5059774;28;20166;-74
2021/06/12 09:14:01;;;;;;;25.30;22.80;;;20.10;99.90;;;;;;5056968;28;20420;-74
2021/06/12 09:16:45;;;;;;;26.20;23.63;;;20.20;99.90;;;;;;5055953;28;20416;-74
2021/06/12 09:19:20;;;;;;;25.30;22.90;;;20.40;99.90;;;;;;5056382;28;20400;-74
2021/06/12 09:21:58;;;;;;;23.77;21.57;;;20.60;99.90;;;;;;5059772;28;20409;-74
2021/06/12 09:24:25;;;;;;;22.90;20.60;;;20.90;99.90;;;;;;5057462;28;20432;-74
2021/06/12 09:26:54;;;;;;;21.53;19.43;;;21.20;99.90;;;;;;5054952;28;20456;-74
2021/06/12 09:29:20;;;;;;;23.38;21.27;;;21.40;99.90;;;;;;5054711;28;20418;-75
2021/06/12 09:31:53;;;;;;;21.50;19.60;;;21.60;99.90;;;;;;5056624;28;20224;-74
2021/06/12 09:34:21;;;;;;;22.43;20.37;;;21.80;99.90;;;;;;5055779;28;20499;-75
2021/06/12 09:36:48;;;;;;;23.53;21.17;;;21.80;99.90;;;;;;5056444;28;20497;-75
2021/06/12 09:39:24;;;;;;;21.33;19.43;;;21.80;99.90;;;;;;5055520;28;20450;-75
2021/06/12 09:41:52;;;;;;;21.53;19.63;;;21.90;99.90;;;;;;5052427;28;20889;-74
2021/06/12 09:44:38;;;;;;;19.53;17.73;;;21.80;99.90;;;;;;5055987;28;20408;-74
2021/06/12 09:47:11;;;;;;;20.60;18.60;;;21.80;99.90;;;;;;5054714;28;20838;-74
2021/06/12 09:49:39;;;;;;;20.37;18.37;;;21.80;99.90;;;;;;5054897;28;20409;-74
2021/06/12 09:52:10;;;;;;;19.67;17.77;;;21.80;99.90;;;;;;5053786;28;20488;-74
2021/06/12 09:54:44;;;;;;;19.63;17.73;;;21.80;99.90;;;;;;5053680;28;20428;-75
2021/06/12 09:57:12;;;;;;;20.57;18.57;;;21.90;99.90;;;;;;5053895;28;20408;-74
2021/06/12 09:59:39;;;;;;;20.97;18.77;;;21.90;99.90;;;;;;5054667;28;20440;-74
2021/06/12 10:02:05;;;;;;;23.45;21.27;;;21.70;99.90;;;;;;5055853;28;20787;-74
2021/06/12 10:04:32;;;;;;;21.40;19.50;;;21.50;99.90;;;;;;5055812;28;20200;-74
2021/06/12 10:06:58;;;;;;;21.27;19.20;;;21.50;99.90;;;;;;5053698;28;20198;-73
2021/06/12 10:09:24;;;;;;;19.88;18.08;;;21.50;99.90;;;;;;5054857;28;20494;-74
2021/06/12 10:11:50;;;;;;;18.87;17.10;;;21.70;99.90;;;;;;5056127;28;20631;-74
2021/06/12 10:14:17;;;;;;;18.80;17.03;;;22.00;99.90;;;;;;5054559;28;20404;-73
2021/06/12 10:16:44;;;;;;;21.77;18.90;;;22.00;99.90;;;;;;5055579;28;20499;-73
2021/06/12 10:19:13;;;;;;;22.17;19.97;;;21.70;99.90;;;;;;5056804;28;20499;-75
2021/06/12 10:21:39;;;;;;;29.80;19.00;;;21.40;99.90;;;;;;5055975;28;20524;-73
2021/06/12 10:24:09;;;;;;;20.30;18.50;;;21.40;99.90;;;;;;5055634;28;20501;-74
2021/06/12 10:26:36;;;;;;;20.40;17.13;;;21.60;99.90;;;;;;5054005;28;20482;-74
2021/06/12 10:29:03;;;;;;;20.53;17.00;;;21.70;99.90;;;;;;5053487;28;20454;-73
2021/06/12 10:31:35;;;;;;;19.23;17.47;;;21.90;99.90;;;;;;5053603;28;20420;-74
2021/06/12 10:34:01;;;;;;;19.93;17.90;;;22.00;99.90;;;;;;5053410;28;20463;-74
2021/06/12 10:36:34;;;;;;;20.40;18.40;;;22.10;99.90;;;;;;5053560;28;20424;-74
2021/06/12 10:39:01;;;;;;;18.50;16.80;;;22.10;99.90;;;;;;5056007;28;20495;-74
2021/06/12 10:41:29;;;;;;;19.73;17.90;;;22.10;99.90;;;;;;5057034;28;20410;-75
2021/06/12 10:44:00;;;;;;;18.57;16.67;;;22.20;99.90;;;;;;5056276;28;20830;-74
2021/06/12 10:46:28;;;;;;;19.00;17.20;;;22.20;99.90;;;;;;5057560;28;20483;-74
2021/06/12 10:49:00;;;;;;;18.73;17.00;;;22.20;99.90;;;;;;5057281;28;20492;-74
2021/06/12 10:51:25;;;;;;;19.30;17.40;;;22.10;99.90;;;;;;5057157;28;20427;-74
2021/06/12 10:54:09;;;;;;;19.80;17.83;;;21.90;99.90;;;;;;5056884;28;20423;-74
2021/06/12 10:56:42;;;;;;;18.97;17.00;;;21.50;99.90;;;;;;5057001;28;20192;-72
2021/06/12 10:59:10;;;;;;;20.17;18.30;;;21.50;99.90;;;;;;5056852;28;20435;-73
2021/06/12 11:01:35;;;;;;;18.77;16.97;;;21.40;99.90;;;;;;5057081;28;20512;-72
2021/06/12 11:09:19;;;;;;;19.47;17.57;;;21.90;99.90;;;;;;5057150;28;20436;-73
2021/06/12 11:11:46;;;;;;;20.40;17.57;;;22.10;99.90;;;;;;5057179;28;20491;-72
2021/06/12 11:14:23;;;;;;;20.43;18.47;;;22.00;99.90;;;;;;5056244;28;20945;-73
2021/06/12 11:17:10;;;;;;;19.00;17.10;;;22.00;99.90;;;;;;5056497;28;20758;-73
2021/06/12 11:19:54;;;;;;;19.40;17.60;;;22.20;99.90;;;;;;5056622;28;20499;-73
2021/06/12 11:22:32;;;;;;;18.03;16.13;;;22.30;99.90;;;;;;5057035;28;20432;-75
2021/06/12 11:25:01;;;;;;;18.57;16.60;;;22.40;99.90;;;;;;5056461;28;20440;-73
2021/06/12 11:27:37;;;;;;;18.73;16.70;;;22.50;99.90;;;;;;5057001;28;20411;-73
2021/06/12 11:30:10;;;;;;;17.63;15.50;;;22.60;99.90;;;;;;5056779;28;20404;-73
2021/06/12 11:32:36;;;;;;;19.30;17.50;;;22.80;99.90;;;;;;5055450;28;20451;-73
2021/06/12 11:35:03;;;;;;;20.93;18.87;;;22.70;99.90;;;;;;5056177;28;20708;-72
2021/06/12 11:37:29;;;;;;;19.60;17.47;;;22.50;99.90;;;;;;5056301;28;20416;-73
2021/06/12 11:40:03;;;;;;;19.30;17.30;;;22.00;99.90;;;;;;5056743;28;20411;-74
2021/06/12 11:42:47;;;;;;;19.20;17.03;;;21.80;99.90;;;;;;5056246;28;20178;-74
2021/06/12 11:45:16;;;;;;;19.50;17.60;;;21.80;99.90;;;;;;5056208;28;20491;-74
2021/06/12 11:47:42;;;;;;;19.93;17.87;;;21.90;99.90;;;;;;5056796;28;20768;-74
2021/06/12 11:50:08;;;;;;;17.83;16.07;;;21.90;99.90;;;;;;5054742;28;20504;-74
2021/06/12 11:52:37;;;;;;;18.60;16.23;;;22.00;99.90;;;;;;5056626;28;20177;-75
2021/06/12 11:55:13;;;;;;;20.10;16.73;;;22.10;99.90;;;;;;5055782;28;20429;-74
2021/06/12 11:57:43;;;;;;;19.93;17.93;;;22.10;99.90;;;;;;5055683;28;20432;-73
2021/06/12 12:00:25;;;;;;;18.63;16.73;;;21.90;99.90;;;;;;5056055;28;20924;-72
2021/06/12 12:03:04;;;;;;;20.67;17.33;;;21.80;99.90;;;;;;5055770;28;20499;-73
2021/06/12 12:05:40;;;;;;;20.30;18.20;;;21.80;99.90;;;;;;5054792;28;20424;-74
2021/06/12 12:08:17;;;;;;;18.07;16.20;;;21.70;99.90;;;;;;5055429;28;20276;-74
2021/06/12 12:10:45;;;;;;;17.03;15.37;;;21.50;99.90;;;;;;5056737;28;20761;-74
2021/06/12 12:13:34;;;;;;;16.10;14.40;;;21.40;99.90;;;;;;5055092;28;21032;-72
2021/06/12 12:16:02;;;;;;;15.70;14.10;;;21.40;99.90;;;;;;5055872;28;20448;-73
2021/06/12 12:18:27;;;;;;;16.83;14.87;;;21.70;99.90;;;;;;5055620;28;20405;-73
2021/06/12 12:20:57;;;;;;;16.20;14.63;;;22.00;99.90;;;;;;5055377;28;21003;-73
2021/06/12 12:23:28;;;;;;;15.97;14.37;;;22.00;99.90;;;;;;5055114;28;20170;-74
2021/06/12 12:26:06;;;;;;;14.50;13.20;;;22.20;99.90;;;;;;5053735;28;20510;-74
2021/06/12 12:28:32;;;;;;;13.07;11.87;;;22.20;99.70;;;;;;5055478;28;20380;-74
2021/06/12 12:31:08;;;;;;;12.57;11.30;;;22.30;99.50;;;;;;5055474;28;20882;-72
2021/06/12 12:33:44;;;;;;;13.57;12.20;;;22.40;99.10;;;;;;5055042;28;20165;-74
2021/06/12 12:36:10;;;;;;;12.30;11.10;;;22.30;99.00;;;;;;5055519;28;20439;-74
2021/06/12 12:38:36;;;;;;;10.07;8.90;;;22.50;98.50;;;;;;5054897;28;20420;-73
2021/06/12 12:41:07;;;;;;;9.17;6.70;;;22.70;98.00;;;;;;5054774;28;20619;-73
2021/06/12 12:43:32;;;;;;;6.93;5.50;;;22.70;95.40;;;;;;5054878;28;20170;-73
2021/06/12 12:45:58;;;;;;;6.40;5.80;;;22.70;95.10;;;;;;5053988;28;20436;-73